Time;durP1;ratioP1;P1;durP2;ratioP2;P2;SDS_P1;SDS_P2;PMS_P1;PMS_P2;Temp;Humidity;BMP_temperature;BMP_pressure;BME280_temperature;BME280_humidity;BME280_pressure;Samples;Min_cycle;Max_cycle;Signal;HPM_P1;HPM_P2
2023/09/09 00:02:49;;;;;;;6.72;5.53;;;;;;;21.93;48.09;99751.09;10379775;28;20247;-35
2023/09/09 00:07:51;;;;;;;8.30;5.60;;;;;;;22.18;47.12;99763.28;10377662;28;20244;-35
2023/09/09 00:12:52;;;;;;;7.10;5.95;;;;;;;22.31;46.88;99763.66;10385731;28;20267;-35
2023/09/09 00:17:54;;;;;;;7.47;5.40;;;;;;;23.19;45.35;99764.06;10380583;28;20205;-35
2023/09/09 00:22:56;;;;;;;7.80;5.10;;;;;;;22.71;45.99;99799.63;10381132;28;20232;-35
2023/09/09 00:27:58;;;;;;;7.28;5.63;;;;;;;22.18;46.92;99829.50;10382510;28;20232;-35
2023/09/09 00:33:00;;;;;;;7.10;5.15;;;;;;;21.88;46.92;99830.06;10384474;28;20776;-35
2023/09/09 00:38:02;;;;;;;6.38;5.78;;;;;;;22.44;46.53;99797.00;10382641;28;20209;-35
2023/09/09 00:43:04;;;;;;;6.10;5.25;;;;;;;22.73;45.53;99802.88;10384951;28;20378;-36
2023/09/09 00:48:07;;;;;;;6.40;5.63;;;;;;;23.11;45.28;99773.56;10379016;28;20232;-35
2023/09/09 00:53:09;;;;;;;6.88;5.10;;;;;;;22.57;46.02;99799.28;10383587;28;21005;-35
2023/09/09 00:58:11;;;;;;;7.00;4.93;;;;;;;22.78;46.04;99785.72;10380459;28;20237;-36
2023/09/09 01:03:13;;;;;;;6.60;5.25;;;;;;;22.69;46.39;99786.25;10379329;28;20252;-35
2023/09/09 01:08:26;;;;;;;10.15;5.80;;;;;;;22.11;47.12;99810.66;10379820;28;20700;-35
2023/09/09 01:13:29;;;;;;;6.20;4.65;;;;;;;22.11;47.14;99807.13;10381471;28;20271;-35
2023/09/09 01:18:34;;;;;;;6.88;5.50;;;;;;;22.43;46.17;99798.88;10383314;28;20245;-35
2023/09/09 01:23:38;;;;;;;8.32;6.60;;;;;;;22.51;46.56;99792.97;10379035;28;20247;-35
2023/09/09 01:28:42;;;;;;;7.57;6.25;;;;;;;19.91;51.20;99815.00;10376199;28;20241;-35
2023/09/09 01:33:43;;;;;;;8.43;7.03;;;;;;;20.47;50.41;99792.50;10381808;28;20283;-35
2023/09/09 01:38:46;;;;;;;8.00;6.70;;;;;;;21.45;49.48;99721.06;10383308;28;20313;-35
2023/09/09 01:43:48;;;;;;;7.15;6.45;;;;;;;19.90;52.28;99778.03;10375178;28;20241;-35
2023/09/09 01:48:50;;;;;;;10.35;6.72;;;;;;;19.27;52.86;99796.19;10382430;28;20279;-35
2023/09/09 01:53:52;;;;;;;8.50;6.85;;;;;;;18.90;54.54;99760.47;10383043;28;20292;-35
2023/09/09 01:58:53;;;;;;;8.55;7.10;;;;;;;20.00;51.83;99723.06;10378427;28;20628;-34
2023/09/09 02:03:55;;;;;;;7.68;6.57;;;;;;;19.83;51.99;99741.28;10381439;28;20371;-35
2023/09/09 02:08:57;;;;;;;8.25;6.07;;;;;;;21.82;48.63;99730.34;10381381;28;20312;-35
2023/09/09 02:13:59;;;;;;;9.30;6.45;;;;;;;22.36;46.80;99764.78;10375725;28;20314;-35
2023/09/09 02:19:01;;;;;;;7.97;6.90;;;;;;;21.26;48.42;99812.28;10379297;28;20706;-35
2023/09/09 02:24:03;;;;;;;10.52;6.68;;;;;;;20.81;49.40;99809.56;10372173;28;20849;-35
2023/09/09 02:29:05;;;;;;;9.43;6.57;;;;;;;21.56;48.53;99758.19;10378945;28;20242;-35
2023/09/09 02:34:06;;;;;;;9.93;7.30;;;;;;;20.81;50.00;99778.84;10372703;28;20257;-35
2023/09/09 02:39:08;;;;;;;7.70;6.90;;;;;;;20.62;50.04;99792.72;10375946;28;20718;-35
2023/09/09 02:44:10;;;;;;;7.70;6.85;;;;;;;18.86;53.55;99829.75;10375004;28;20275;-35
2023/09/09 02:49:11;;;;;;;9.90;7.65;;;;;;;19.20;53.15;99807.19;10377040;28;20228;-35
2023/09/09 02:54:13;;;;;;;8.80;7.63;;;;;;;19.81;52.22;99757.81;10374063;28;20248;-35
2023/09/09 02:59:15;;;;;;;10.52;7.70;;;;;;;19.02;53.15;99799.22;10380652;28;21234;-35
2023/09/09 03:04:19;;;;;;;7.60;6.78;;;;;;;19.79;52.01;99738.25;10375910;28;20239;-35
2023/09/09 03:09:21;;;;;;;10.02;7.70;;;;;;;19.28;53.17;99751.75;10374649;28;20337;-35
2023/09/09 03:14:23;;;;;;;9.68;7.00;;;;;;;18.88;53.67;99779.69;10373380;28;20282;-35
2023/09/09 03:19:25;;;;;;;9.32;7.45;;;;;;;18.00;55.40;99806.69;10378672;28;20334;-35
2023/09/09 03:24:27;;;;;;;9.05;7.53;;;;;;;18.74;54.57;99759.31;10377887;28;20225;-35
2023/09/09 03:29:29;;;;;;;10.00;7.63;;;;;;;19.75;52.51;99751.50;10377773;28;20325;-35
2023/09/09 03:34:31;;;;;;;9.10;8.05;;;;;;;20.60;50.90;99707.88;10374489;28;20300;-35
2023/09/09 03:39:33;;;;;;;10.90;7.45;;;;;;;19.50;51.80;99857.69;10376635;28;20247;-35
2023/09/09 03:44:35;;;;;;;8.90;7.28;;;;;;;20.56;49.52;99782.84;10369193;28;20732;-35
2023/09/09 03:49:37;;;;;;;11.70;7.75;;;;;;;21.31;48.65;99747.03;10385205;28;20595;-35
2023/09/09 03:54:38;;;;;;;7.97;6.20;;;;;;;20.04;50.68;99868.19;10378133;28;20229;-35
2023/09/09 03:59:40;;;;;;;10.98;7.75;;;;;;;21.17;49.09;99787.41;10384691;28;20240;-35
2023/09/09 04:04:42;;;;;;;8.25;7.18;;;;;;;21.37;48.19;99804.00;10381917;28;20252;-35
2023/09/09 04:09:44;;;;;;;9.30;7.38;;;;;;;20.59;48.97;99857.63;10387262;28;20789;-34
2023/09/09 04:14:46;;;;;;;7.50;6.70;;;;;;;21.50;47.62;99801.94;10413942;22;20267;-37
2023/09/09 04:19:47;;;;;;;10.65;7.35;;;;;;;21.30;47.73;99814.22;10424474;28;20236;-36
2023/09/09 04:24:50;;;;;;;9.68;6.40;;;;;;;21.17;48.20;99823.63;10404319;28;20225;-36
2023/09/09 04:29:51;;;;;;;8.15;7.10;;;;;;;20.73;48.64;99874.41;10382893;28;20233;-37
2023/09/09 04:34:53;;;;;;;9.75;7.97;;;;;;;20.76;49.11;99849.44;10386468;28;20228;-37
2023/09/09 04:39:55;;;;;;;9.07;7.28;;;;;;;20.56;48.75;99872.53;10382937;28;20306;-37
2023/09/09 04:44:57;;;;;;;8.20;6.47;;;;;;;21.36;47.72;99821.41;10381425;28;20379;-38
2023/09/09 04:49:58;;;;;;;9.77;7.03;;;;;;;20.46;49.12;99867.78;10383160;28;20326;-37
2023/09/09 04:55:00;;;;;;;8.55;6.63;;;;;;;21.19;47.60;99826.91;10380276;28;20232;-36
2023/09/09 05:00:06;;;;;;;8.77;6.75;;;;;;;21.59;47.27;99814.00;10382667;28;20228;-37
2023/09/09 05:05:08;;;;;;;8.80;6.93;;;;;;;21.29;47.13;99855.28;10378245;28;20597;-36
2023/09/09 05:10:10;;;;;;;9.75;8.25;;;;;;;20.94;47.95;99856.53;10384250;28;20725;-37
2023/09/09 05:15:13;;;;;;;9.32;7.95;;;;;;;19.89;49.68;99914.91;10380068;28;20250;-36
2023/09/09 05:20:15;;;;;;;8.85;6.63;;;;;;;21.72;46.54;99837.28;10379422;28;21008;-37
2023/09/09 05:25:17;;;;;;;7.95;6.60;;;;;;;21.73;47.08;99833.50;10378617;28;25244;-37
2023/09/09 05:30:19;;;;;;;8.20;6.82;;;;;;;21.55;47.43;99853.72;10380521;28;20229;-37
2023/09/09 05:35:21;;;;;;;9.77;6.82;;;;;;;20.56;49.39;99885.31;10375834;28;20232;-37
2023/09/09 05:40:22;;;;;;;16.15;8.57;;;;;;;21.64;47.63;99819.50;10380062;28;20247;-37
2023/09/09 05:45:24;;;;;;;10.32;8.20;;;;;;;19.82;51.14;99910.66;10379785;28;20282;-36
2023/09/09 05:50:26;;;;;;;9.15;7.80;;;;;;;18.54;54.20;99871.66;10384256;28;20308;-37
2023/09/09 05:55:29;;;;;;;8.60;7.45;;;;;;;20.12;51.07;99851.44;10376367;28;20367;-35
2023/09/09 06:00:31;;;;;;;8.52;7.68;;;;;;;21.02;49.49;99813.38;10375831;28;20256;-37
2023/09/09 06:05:33;;;;;;;8.90;7.65;;;;;;;19.15;52.29;99921.00;10377984;28;20241;-36
2023/09/09 06:10:34;;;;;;;12.63;7.88;;;;;;;21.16;48.39;99878.28;10375088;28;20251;-37
2023/09/09 06:15:36;;;;;;;9.93;7.55;;;;;;;20.66;49.10;99942.56;10375531;28;20244;-36
2023/09/09 06:20:38;;;;;;;8.57;7.30;;;;;;;20.47;50.23;99907.47;10377623;28;20486;-38
2023/09/09 06:25:40;;;;;;;8.43;7.38;;;;;;;18.77;53.96;99906.03;10372872;28;20271;-38
2023/09/09 06:30:44;;;;;;;10.68;7.85;;;;;;;19.20;53.44;99895.88;10377394;28;20255;-35
2023/09/09 06:35:48;;;;;;;11.05;8.55;;;;;;;18.88;54.22;99906.25;10371075;28;20808;-36
2023/09/09 06:40:50;;;;;;;11.70;8.88;;;;;;;20.32;51.59;99828.44;10374344;28;20229;-36
2023/09/09 06:45:52;;;;;;;10.32;8.77;;;;;;;19.68;53.25;99872.16;10382200;28;20737;-36
2023/09/09 06:50:53;;;;;;;12.73;10.05;;;;;;;19.42;54.11;99879.78;10371272;28;20328;-36
2023/09/09 06:55:55;;;;;;;10.60;8.90;;;;;;;19.19;54.73;99892.31;10381304;28;20236;-37
2023/09/09 07:00:57;;;;;;;11.40;9.27;;;;;;;19.98;53.92;99805.88;10373664;28;20240;-35
2023/09/09 07:06:00;;;;;;;13.60;10.77;;;;;;;20.15;53.45;99880.03;10375959;28;20742;-36
2023/09/09 07:11:02;;;;;;;15.13;11.48;;;;;;;22.29;49.01;99923.09;10377679;28;20709;-36
2023/09/09 07:16:03;;;;;;;17.20;11.90;;;;;;;20.04;54.29;99933.38;10376629;28;20948;-35
2023/09/09 07:21:06;;;;;;;11.93;10.73;;;;;;;20.98;52.38;99898.44;10381918;28;20623;-36
2023/09/09 07:26:07;;;;;;;13.60;10.88;;;;;;;20.79;53.01;99949.59;10378697;28;20290;-36
2023/09/09 07:31:09;;;;;;;12.73;11.32;;;;;;;20.18;54.31;99938.53;10386974;28;20331;-35
2023/09/09 07:36:11;;;;;;;14.18;10.98;;;;;;;20.42;53.56;99947.34;10388000;28;20778;-36
2023/09/09 07:41:13;;;;;;;14.63;11.48;;;;;;;20.58;53.86;99948.41;10381518;28;20228;-35
2023/09/09 07:46:15;;;;;;;14.93;11.13;;;;;;;19.75;55.82;99954.25;10384110;28;20722;-36
2023/09/09 07:51:17;;;;;;;12.50;11.18;;;;;;;20.88;53.51;99918.16;10384548;28;20224;-36
2023/09/09 07:56:18;;;;;;;12.23;10.73;;;;;;;21.76;51.41;99869.19;10386225;28;20339;-36
2023/09/09 08:01:20;;;;;;;12.68;11.35;;;;;;;21.54;52.67;99877.41;10378181;28;20815;-37
2023/09/09 08:06:23;;;;;;;11.93;10.63;;;;;;;22.27;50.93;99855.22;10374084;28;20229;-35
2023/09/09 08:11:25;;;;;;;11.57;10.10;;;;;;;21.35;52.82;99930.50;10383281;28;20229;-36
2023/09/09 08:16:26;;;;;;;11.30;10.10;;;;;;;22.70;50.19;99924.22;10378373;28;20242;-37
2023/09/09 08:21:31;;;;;;;11.25;10.13;;;;;;;23.60;49.10;99873.34;10381304;28;20294;-36
2023/09/09 08:26:33;;;;;;;11.02;9.13;;;;;;;24.06;47.51;99886.28;10377102;28;20330;-36
2023/09/09 08:31:35;;;;;;;15.50;11.75;;;;;;;22.09;51.50;99979.03;10379334;28;20236;-37
2023/09/09 08:36:37;;;;;;;10.07;9.05;;;;;;;24.82;46.90;99882.69;10374168;28;20233;-37
2023/09/09 08:41:47;;;;;;;9.32;8.32;;;;;;;24.48;47.86;99918.84;10373274;28;20245;-37
2023/09/09 08:46:49;;;;;;;10.75;8.88;;;;;;;24.46;47.30;99931.13;10376273;28;20737;-37
2023/09/09 08:52:08;;;;;;;10.55;9.45;;;;;;;25.60;46.21;99889.47;10379351;28;20662;-36
2023/09/09 08:57:10;;;;;;;9.18;8.23;;;;;;;25.32;46.13;99920.31;10380326;28;20314;-37
2023/09/09 09:02:12;;;;;;;10.02;8.57;;;;;;;23.71;49.24;99976.09;10378689;28;20206;-38
2023/09/09 09:07:14;;;;;;;10.63;8.35;;;;;;;24.88;47.25;99900.75;10381585;28;20331;-37
2023/09/09 09:12:16;;;;;;;8.60;7.70;;;;;;;25.78;46.07;99912.69;10380590;28;20714;-36
2023/09/09 09:17:18;;;;;;;9.52;8.52;;;;;;;25.69;46.07;99900.66;10374172;28;20237;-36
2023/09/09 09:22:20;;;;;;;9.98;7.75;;;;;;;24.72;47.39;99954.66;10375237;28;20303;-36
2023/09/09 09:27:22;;;;;;;9.70;7.63;;;;;;;25.88;45.71;99900.00;10376586;28;20621;-37
2023/09/09 09:32:40;;;;;;;10.65;8.25;;;;;;;26.82;44.58;99866.84;10376074;28;20765;-37
2023/09/09 09:37:42;;;;;;;9.25;8.00;;;;;;;26.39;45.34;99902.38;10377118;28;20232;-37
2023/09/09 09:42:43;;;;;;;10.23;8.00;;;;;;;25.89;45.65;99916.19;10373625;28;20228;-37
2023/09/09 09:47:50;;;;;;;9.93;8.23;;;;;;;25.14;47.15;99917.06;10381742;28;20606;-36
2023/09/09 09:53:03;;;;;;;9.68;8.15;;;;;;;25.52;46.50;99908.44;10374814;28;20286;-38
2023/09/09 09:58:06;;;;;;;10.05;7.47;;;;;;;26.83;44.45;99871.22;10378413;28;20236;-38
2023/09/09 10:03:12;;;;;;;8.95;7.50;;;;;;;27.29;44.33;99856.97;10375314;28;20267;-36
2023/09/09 10:08:28;;;;;;;7.93;7.10;;;;;;;27.75;43.04;99840.91;10373167;28;20752;-37
2023/09/09 10:13:45;;;;;;;10.55;7.22;;;;;;;27.89;42.80;99869.28;10375628;28;20386;-37
2023/09/09 10:18:49;;;;;;;8.60;7.70;;;;;;;26.41;44.46;99858.22;10370903;28;20613;-36
2023/09/09 10:23:51;;;;;;;8.02;7.22;;;;;;;27.55;42.97;99858.50;10373929;28;20242;-36
2023/09/09 10:28:54;;;;;;;8.20;6.93;;;;;;;27.61;42.80;99860.06;10359104;28;20751;-36
2023/09/09 10:33:58;;;;;;;8.18;6.72;;;;;;;27.18;43.00;99880.13;10354886;28;20767;-36
2023/09/09 10:39:00;;;;;;;10.43;7.38;;;;;;;28.01;42.03;99852.31;10355744;28;20236;-37
2023/09/09 10:44:03;;;;;;;9.02;6.43;;;;;;;27.43;43.00;99859.78;10391229;28;20233;-37
2023/09/09 10:49:05;;;;;;;6.95;5.78;;;;;;;27.60;42.36;99844.69;10372127;28;20240;-35
2023/09/09 10:54:11;;;;;;;7.50;6.63;;;;;;;27.36;42.51;99856.56;10372685;28;20228;-37
2023/09/09 10:59:24;;;;;;;7.10;6.40;;;;;;;26.11;44.01;99840.91;10375915;28;20236;-36
2023/09/09 11:06:27;;;;;;;11.65;6.30;;;;;;;26.77;43.34;99768.09;10514416;27;20828;-74
2023/09/09 11:11:37;;;;;;;7.00;5.88;;;;;;;24.74;45.52;99825.81;10447748;28;20253;-73
2023/09/09 11:16:41;;;;;;;6.85;6.03;;;;;;;26.14;44.28;99772.59;10515949;28;21027;-74
2023/09/09 11:21:45;;;;;;;6.45;5.75;;;;;;;25.36;44.91;99820.88;10531819;28;20288;-74
2023/09/09 11:26:48;;;;;;;7.55;5.25;;;;;;;26.52;42.69;99791.97;10542111;28;20317;-73
2023/09/09 11:31:50;;;;;;;9.27;5.30;;;;;;;27.06;42.69;99789.13;10539464;28;20226;-74
2023/09/09 11:36:53;;;;;;;6.75;6.00;;;;;;;27.20;43.09;99803.75;10548000;28;20222;-74
2023/09/09 11:41:55;;;;;;;9.50;6.60;;;;;;;27.22;43.36;99796.06;10557222;27;20317;-74
2023/09/09 11:46:58;;;;;;;7.35;6.53;;;;;;;26.90;44.11;99811.28;10544084;28;20261;-71
2023/09/09 11:52:00;;;;;;;9.30;6.03;;;;;;;27.09;44.01;99785.78;10537523;28;20669;-73
2023/09/09 11:57:09;;;;;;;8.05;5.70;;;;;;;27.22;44.15;99785.06;10536561;28;20241;-73
2023/09/09 12:02:18;;;;;;;7.47;6.22;;;;;;;26.69;44.77;99788.75;10533614;28;20379;-73
2023/09/09 12:07:21;;;;;;;7.32;5.82;;;;;;;26.79;45.13;99774.13;10540395;28;20238;-77
2023/09/09 12:12:24;;;;;;;9.52;5.65;;;;;;;27.29;43.45;99785.53;10535074;28;20342;-77
2023/09/09 12:17:26;;;;;;;9.30;5.90;;;;;;;27.09;43.77;99785.78;10499511;28;20999;-76
2023/09/09 12:22:32;;;;;;;7.13;5.88;;;;;;;27.39;43.42;99761.75;10488572;28;20321;-77
2023/09/09 12:27:45;;;;;;;10.07;5.78;;;;;;;27.66;42.34;99767.34;10505385;28;20758;-76
2023/09/09 12:32:46;;;;;;;7.47;5.43;;;;;;;26.61;43.34;99811.34;10507330;28;20307;-73
2023/09/09 12:37:48;;;;;;;7.13;5.10;;;;;;;28.18;41.90;99771.97;10504393;28;20234;-74
2023/09/09 12:42:53;;;;;;;6.38;4.82;;;;;;;27.45;41.69;99818.28;10507428;28;20712;-74
2023/09/09 12:48:08;;;;;;;7.80;5.22;;;;;;;28.06;41.61;99783.47;10508143;28;20234;-73
2023/09/09 12:53:10;;;;;;;6.18;5.35;;;;;;;28.18;41.40;99772.81;10506790;28;20238;-74
2023/09/09 12:58:13;;;;;;;7.38;5.50;;;;;;;27.38;42.16;99815.06;10502336;28;20532;-74
2023/09/09 13:03:15;;;;;;;6.18;5.13;;;;;;;27.52;41.29;99785.72;10506188;28;20234;-74
2023/09/09 13:08:17;;;;;;;7.15;4.90;;;;;;;28.54;41.52;99774.88;10498179;28;20256;-73
2023/09/09 13:13:18;;;;;;;6.47;5.15;;;;;;;28.57;41.08;99768.75;10506546;28;20231;-73
2023/09/09 13:18:20;;;;;;;6.35;5.05;;;;;;;28.11;41.14;99779.81;10502697;28;20927;-73
2023/09/09 13:23:22;;;;;;;7.15;5.22;;;;;;;27.64;41.51;99799.81;10506369;28;20234;-74
2023/09/09 13:28:24;;;;;;;5.60;4.50;;;;;;;28.50;40.34;99773.06;10501182;28;20621;-74
2023/09/09 13:33:26;;;;;;;6.07;4.47;;;;;;;28.02;41.13;99777.78;10508200;28;20230;-74
2023/09/09 13:38:27;;;;;;;6.60;5.05;;;;;;;28.79;40.59;99725.94;10503596;28;20344;-74
2023/09/09 13:43:30;;;;;;;6.88;5.15;;;;;;;28.71;40.45;99746.75;10506297;28;20231;-78
2023/09/09 13:48:32;;;;;;;10.65;5.18;;;;;;;28.48;40.85;99742.28;10497924;28;20312;-72
2023/09/09 13:53:34;;;;;;;8.35;5.30;;;;;;;28.20;42.07;99720.25;10499990;28;20280;-72
2023/09/09 13:58:36;;;;;;;10.27;5.70;;;;;;;28.40;40.82;99719.03;10500394;28;20241;-72
2023/09/09 14:03:38;;;;;;;6.50;5.10;;;;;;;27.24;42.01;99758.13;10506621;28;20237;-71
2023/09/09 14:08:39;;;;;;;8.30;6.15;;;;;;;28.01;41.40;99707.38;10502767;28;20234;-72
2023/09/09 14:13:41;;;;;;;9.65;4.93;;;;;;;28.13;41.70;99711.56;10506764;28;20840;-72
2023/09/09 14:18:43;;;;;;;7.22;5.07;;;;;;;28.48;41.37;99703.75;10499788;28;21147;-72
2023/09/09 14:23:45;;;;;;;8.23;5.28;;;;;;;28.53;40.22;99714.66;10507391;28;20320;-74
2023/09/09 14:28:47;;;;;;;7.57;5.00;;;;;;;28.30;41.16;99720.06;10504419;28;20887;-74
2023/09/09 14:33:49;;;;;;;9.57;4.90;;;;;;;28.82;40.25;99705.25;10495283;28;20723;-74
2023/09/09 14:38:51;;;;;;;7.32;5.03;;;;;;;28.66;39.74;99711.09;10486081;28;20236;-73
2023/09/09 14:43:53;;;;;;;7.30;4.72;;;;;;;28.68;40.70;99719.00;10498091;28;20246;-74
2023/09/09 14:49:00;;;;;;;9.25;4.75;;;;;;;28.62;40.13;99718.28;10500467;28;20245;-73
2023/09/09 14:54:03;;;;;;;8.07;4.75;;;;;;;28.72;40.08;99725.56;10498213;28;20231;-72
2023/09/09 14:59:05;;;;;;;7.80;4.85;;;;;;;28.92;39.04;99729.78;10497945;28;20363;-71
2023/09/09 15:04:06;;;;;;;8.50;4.53;;;;;;;28.21;40.08;99752.16;10496003;28;20238;-72
2023/09/09 15:09:08;;;;;;;5.97;4.55;;;;;;;28.58;40.14;99734.59;10500732;28;20241;-73
2023/09/09 15:14:10;;;;;;;5.60;4.13;;;;;;;28.51;40.16;99731.47;10496423;28;20245;-73
2023/09/09 15:19:12;;;;;;;7.68;4.70;;;;;;;28.96;39.64;99722.53;10495870;28;20226;-74
2023/09/09 15:24:16;;;;;;;9.30;5.20;;;;;;;28.63;39.47;99730.09;10494184;28;20331;-72
2023/09/09 15:29:17;;;;;;;5.72;4.35;;;;;;;28.48;39.89;99720.25;10492792;28;20234;-73
2023/09/09 15:34:19;;;;;;;6.70;4.05;;;;;;;29.22;38.40;99700.75;10481021;28;20317;-73
2023/09/09 15:39:21;;;;;;;6.60;4.05;;;;;;;28.81;39.16;99722.88;10493413;28;20243;-73
2023/09/09 15:44:23;;;;;;;6.55;4.35;;;;;;;28.94;38.67;99714.56;10497667;28;20757;-72
2023/09/09 15:49:24;;;;;;;6.60;4.78;;;;;;;28.71;39.63;99727.50;10499892;28;20243;-74
2023/09/09 15:54:26;;;;;;;8.48;4.28;;;;;;;28.93;39.16;99720.38;10498505;28;20227;-73
2023/09/09 15:59:28;;;;;;;7.53;4.70;;;;;;;28.61;39.46;99713.94;10503049;28;20241;-74
2023/09/09 16:04:30;;;;;;;5.75;4.50;;;;;;;29.31;39.38;99698.03;10500998;28;20306;-73
2023/09/09 16:09:31;;;;;;;7.88;4.57;;;;;;;29.25;39.17;99710.31;10502087;28;20325;-73
2023/09/09 16:14:33;;;;;;;7.38;4.57;;;;;;;28.96;39.04;99720.59;10510362;28;20223;-73
2023/09/09 16:19:35;;;;;;;9.32;4.60;;;;;;;28.69;39.37;99729.72;10500228;28;20512;-73
2023/09/09 16:24:36;;;;;;;7.65;4.90;;;;;;;28.77;39.89;99728.19;10510295;28;20239;-73
2023/09/09 16:29:38;;;;;;;5.30;4.60;;;;;;;28.65;39.18;99742.44;10499353;28;20237;-73
2023/09/09 16:34:40;;;;;;;6.95;4.30;;;;;;;29.01;38.78;99724.34;10507440;28;20230;-73
2023/09/09 16:39:41;;;;;;;5.07;4.30;;;;;;;29.02;39.63;99729.56;10503634;28;20721;-73
2023/09/09 16:44:43;;;;;;;7.03;4.68;;;;;;;29.31;38.36;99726.41;10493946;28;20715;-72
2023/09/09 16:49:45;;;;;;;9.18;4.72;;;;;;;28.46;39.94;99739.84;10503829;28;20321;-72
2023/09/09 16:54:47;;;;;;;6.00;4.18;;;;;;;28.53;39.76;99717.41;10502902;28;20237;-73
2023/09/09 16:59:51;;;;;;;6.72;4.78;;;;;;;29.16;39.33;99710.25;10510003;28;20281;-73
2023/09/09 17:04:52;;;;;;;7.60;4.53;;;;;;;29.78;38.92;99717.81;10499214;28;20222;-73
2023/09/09 17:09:54;;;;;;;5.75;4.70;;;;;;;29.75;38.62;99712.94;10486928;28;20232;-73
2023/09/09 17:14:57;;;;;;;8.27;5.07;;;;;;;29.38;39.52;99763.75;10505846;28;20218;-73
2023/09/09 17:19:58;;;;;;;6.80;5.00;;;;;;;29.35;39.10;99754.13;10507536;28;20225;-73
2023/09/09 17:25:00;;;;;;;7.25;5.32;;;;;;;28.85;40.29;99755.00;10502029;28;20223;-73
2023/09/09 17:30:03;;;;;;;7.57;4.93;;;;;;;29.47;39.25;99735.13;10502108;28;20321;-73
2023/09/09 17:35:05;;;;;;;7.95;5.32;;;;;;;27.62;41.67;99769.06;10505535;28;20329;-73
2023/09/09 17:40:08;;;;;;;10.75;5.20;;;;;;;27.44;41.93;99780.91;10503036;28;20383;-74
2023/09/09 17:45:10;;;;;;;7.78;4.95;;;;;;;26.89;42.28;99741.03;10504179;28;20798;-73
2023/09/09 17:50:12;;;;;;;7.43;5.78;;;;;;;27.45;41.53;99744.09;10496092;28;20239;-73
2023/09/09 17:55:14;;;;;;;14.65;4.90;;;;;;;27.76;41.11;99729.84;10500676;28;20234;-73
2023/09/09 18:00:17;;;;;;;8.40;5.40;;;;;;;26.65;42.07;99757.50;10500363;28;20230;-73
2023/09/09 18:05:19;;;;;;;6.50;5.10;;;;;;;27.76;40.53;99724.34;10496924;28;20242;-73
2023/09/09 18:10:21;;;;;;;5.53;4.65;;;;;;;27.68;41.00;99728.56;10501882;28;20233;-73
2023/09/09 18:15:23;;;;;;;9.75;5.30;;;;;;;26.42;42.39;99772.88;10498183;28;20275;-73
2023/09/09 18:20:25;;;;;;;7.28;5.38;;;;;;;27.03;41.27;99765.03;10483422;28;20231;-73
2023/09/09 18:25:27;;;;;;;9.07;4.93;;;;;;;26.84;41.69;99797.91;10504700;28;20697;-73
2023/09/09 18:30:28;;;;;;;8.70;5.20;;;;;;;26.14;42.75;99800.00;10497503;28;20295;-73
2023/09/09 18:35:30;;;;;;;7.30;4.82;;;;;;;27.33;41.29;99771.19;10499248;28;20230;-73
2023/09/09 18:40:32;;;;;;;6.78;5.20;;;;;;;27.85;40.18;99788.50;10498542;28;20724;-73
2023/09/09 18:45:34;;;;;;;5.85;4.57;;;;;;;27.17;41.11;99798.84;10498758;28;20252;-73
2023/09/09 18:50:36;;;;;;;6.05;5.05;;;;;;;25.83;42.46;99841.41;10501508;28;20258;-73
2023/09/09 18:55:38;;;;;;;7.70;5.00;;;;;;;26.75;41.24;99811.47;10497623;28;20317;-73
2023/09/09 19:00:39;;;;;;;8.00;5.57;;;;;;;25.71;42.53;99818.16;10486065;28;20230;-73
2023/09/09 19:05:41;;;;;;;8.45;5.68;;;;;;;25.49;42.84;99827.66;10501159;28;20226;-73
2023/09/09 19:10:43;;;;;;;6.55;4.70;;;;;;;25.19;42.86;99823.16;10498143;28;20235;-73
2023/09/09 19:15:48;;;;;;;9.18;5.07;;;;;;;25.02;42.99;99845.41;10506417;28;20235;-73
2023/09/09 19:20:51;;;;;;;6.65;4.82;;;;;;;25.34;42.48;99834.06;10502583;28;20721;-73
2023/09/09 19:25:55;;;;;;;6.63;4.88;;;;;;;25.10;42.46;99864.81;10500501;28;20219;-73
2023/09/09 19:30:57;;;;;;;7.13;5.00;;;;;;;24.98;42.23;99858.81;10492483;22;20241;-35
2023/09/09 19:35:59;;;;;;;6.03;4.55;;;;;;;25.42;41.77;99841.69;10462050;28;20250;-35
2023/09/09 19:41:01;;;;;;;5.68;4.50;;;;;;;25.18;41.78;99852.44;10462128;28;20235;-35
2023/09/09 19:46:03;;;;;;;7.57;4.70;;;;;;;25.65;40.91;99842.88;10462719;28;20318;-35
2023/09/09 19:51:05;;;;;;;8.20;4.95;;;;;;;25.25;41.50;99872.16;10460998;28;20236;-35
2023/09/09 19:56:07;;;;;;;6.10;4.22;;;;;;;25.58;40.98;99849.78;10460331;28;20235;-35
2023/09/09 20:01:09;;;;;;;6.03;5.13;;;;;;;25.41;41.21;99867.41;10459953;28;20239;-35
2023/09/09 20:06:11;;;;;;;6.05;5.25;;;;;;;25.37;42.52;99887.41;10443795;28;20234;-35
2023/09/09 20:11:13;;;;;;;7.53;5.07;;;;;;;26.78;41.46;99841.09;10460294;28;20227;-35
2023/09/09 20:16:15;;;;;;;6.00;5.10;;;;;;;25.72;42.08;99896.56;10442973;28;20321;-35
2023/09/09 20:21:17;;;;;;;8.18;5.45;;;;;;;26.48;42.04;99836.72;10461220;28;20323;-35
2023/09/09 20:26:18;;;;;;;7.53;5.38;;;;;;;27.10;41.46;99829.44;10457256;28;20373;-35
2023/09/09 20:31:20;;;;;;;7.00;5.28;;;;;;;25.06;44.32;99880.13;10462231;28;20240;-35
2023/09/09 20:36:23;;;;;;;8.70;6.63;;;;;;;26.41;42.32;99828.84;10457306;28;20258;-35
2023/09/09 20:41:25;;;;;;;6.50;5.43;;;;;;;24.28;45.91;99869.66;10458329;28;20239;-35
2023/09/09 20:46:27;;;;;;;8.10;5.75;;;;;;;23.61;47.42;99856.72;10457796;28;20220;-35
2023/09/09 20:51:29;;;;;;;7.70;5.50;;;;;;;24.06;45.85;99848.03;10455863;28;20334;-35
2023/09/09 20:56:30;;;;;;;9.68;5.65;;;;;;;23.00;47.18;99860.03;10458949;28;20342;-35
2023/09/09 21:01:33;;;;;;;9.10;5.82;;;;;;;24.14;45.42;99829.16;10454054;28;20238;-35
2023/09/09 21:06:35;;;;;;;9.88;5.65;;;;;;;22.65;48.18;99886.00;10460166;28;20730;-35
2023/09/09 21:11:37;;;;;;;9.43;6.00;;;;;;;23.32;48.03;99852.81;10459395;28;20310;-35
2023/09/09 21:16:39;;;;;;;7.60;6.18;;;;;;;23.42;48.10;99863.75;10461452;28;20238;-34
2023/09/09 21:21:41;;;;;;;13.00;6.63;;;;;;;23.22;48.21;99851.69;10455434;28;20717;-35
2023/09/09 21:26:44;;;;;;;10.02;6.30;;;;;;;22.78;49.14;99867.56;10456703;28;20230;-35
2023/09/09 21:31:49;;;;;;;8.05;6.35;;;;;;;23.10;48.83;99867.47;10458350;28;20806;-35
2023/09/09 21:36:52;;;;;;;8.13;6.43;;;;;;;22.90;49.57;99874.44;10458941;28;20288;-35
2023/09/09 21:41:53;;;;;;;8.05;7.25;;;;;;;22.59;50.78;99856.25;10463245;28;20223;-35
2023/09/09 21:46:55;;;;;;;7.82;6.68;;;;;;;22.87;49.52;99864.03;10457127;28;20231;-35
2023/09/09 21:51:57;;;;;;;9.75;6.20;;;;;;;22.56;49.78;99878.63;10460735;28;20330;-36
2023/09/09 21:57:02;;;;;;;11.95;6.55;;;;;;;22.73;48.94;99871.06;10461304;28;20254;-35
2023/09/09 22:02:05;;;;;;;12.80;6.30;;;;;;;22.58;49.30;99888.16;10456414;28;20316;-35
2023/09/09 22:07:06;;;;;;;7.57;5.97;;;;;;;22.15;49.76;99877.19;10456296;28;20848;-35
2023/09/09 22:12:08;;;;;;;11.23;6.30;;;;;;;21.98;49.77;99890.09;10454663;28;20211;-35
2023/09/09 22:17:11;;;;;;;7.95;5.78;;;;;;;22.82;48.44;99860.47;10459989;28;20559;-34
2023/09/09 22:22:13;;;;;;;6.68;5.78;;;;;;;23.42;47.55;99864.56;10456309;28;20203;-35
2023/09/09 22:27:14;;;;;;;7.70;6.38;;;;;;;23.24;47.52;99906.81;10456908;28;20789;-35
2023/09/09 22:32:16;;;;;;;6.85;5.63;;;;;;;23.10;47.41;99932.16;10457420;28;20659;-35
2023/09/09 22:37:18;;;;;;;8.73;6.72;;;;;;;22.29;48.97;99906.75;10439082;28;20831;-35
2023/09/09 22:42:21;;;;;;;6.18;5.50;;;;;;;22.06;48.68;99914.16;10457479;28;20308;-35
2023/09/09 22:47:23;;;;;;;6.90;5.82;;;;;;;23.85;46.50;99828.88;10457508;28;20322;-35
2023/09/09 22:52:25;;;;;;;8.77;6.13;;;;;;;23.18;47.71;99918.81;10455787;28;20766;-35
2023/09/09 22:57:27;;;;;;;6.47;5.70;;;;;;;24.18;45.15;99881.41;10458726;28;21145;-35
2023/09/09 23:02:29;;;;;;;7.05;5.97;;;;;;;24.59;44.96;99875.88;10454626;28;20268;-35
2023/09/09 23:07:33;;;;;;;7.35;5.30;;;;;;;23.47;46.50;99921.13;10454743;28;20235;-34
2023/09/09 23:12:50;;;;;;;5.97;5.38;;;;;;;24.15;45.98;99871.81;10458812;28;20238;-35
2023/09/09 23:17:52;;;;;;;8.25;5.80;;;;;;;23.66;46.31;99890.59;10456601;28;20247;-37
2023/09/09 23:22:54;;;;;;;7.15;5.97;;;;;;;23.83;46.50;99873.97;10457332;28;20235;-37